Time;durP1;ratioP1;P1;durP2;ratioP2;P2;SDS_P1;SDS_P2;PMS_P1;PMS_P2;Temp;Humidity;BMP_temperature;BMP_pressure;BME280_temperature;BME280_humidity;BME280_pressure;Samples;Min_cycle;Max_cycle;Signal;HPM_P1;HPM_P2
2023/11/08 00:00:02;;;;;;;0.10;0.10;;;;;;;-144.99;100.00;67352.69;5036507;28;20205;-80
2023/11/08 00:02:27;;;;;;;1.80;0.50;;;;;;;-144.99;100.00;67352.69;4988686;28;20231;-80
2023/11/08 00:04:53;;;;;;;0.50;0.50;;;;;;;-144.99;100.00;67352.69;4979555;28;20185;-80
2023/11/08 00:07:18;;;;;;;0.37;0.37;;;;;;;-144.99;100.00;67352.69;4970622;28;20209;-81
2023/11/08 00:09:44;;;;;;;1.80;0.87;;;;;;;-144.99;100.00;67352.69;4978396;28;20210;-81
2023/11/08 00:12:09;;;;;;;0.40;0.40;;;;;;;-144.99;100.00;67352.69;5016111;28;20247;-81
2023/11/08 00:14:34;;;;;;;0.50;0.50;;;;;;;-144.99;100.00;67352.69;4980495;28;20190;-81
2023/11/08 00:17:01;;;;;;;0.50;0.50;;;;;;;-144.99;100.00;67352.69;5015216;28;20646;-81
2023/11/08 00:19:26;;;;;;;0.13;0.10;;;;;;;-144.99;100.00;67352.69;4985457;28;20216;-80
2023/11/08 00:21:52;;;;;;;2.57;0.40;;;;;;;-144.99;100.00;67352.69;5012355;28;20189;-81
2023/11/08 00:24:18;;;;;;;0.40;0.40;;;;;;;-144.99;100.00;67352.69;5020302;28;20198;-81
2023/11/08 00:26:44;;;;;;;0.87;0.53;;;;;;;-144.99;100.00;67352.69;5017736;28;20298;-81
2023/11/08 00:29:10;;;;;;;0.30;0.30;;;;;;;-144.99;100.00;67352.69;4972470;28;20691;-81
2023/11/08 00:31:35;;;;;;;1.23;0.50;;;;;;;-144.99;100.00;67352.69;4978318;28;20531;-80
2023/11/08 00:34:00;;;;;;;0.07;0.07;;;;;;;-144.99;100.00;67352.69;5021327;28;20269;-81
2023/11/08 00:36:25;;;;;;;0.60;0.50;;;;;;;-144.99;100.00;67352.69;4984487;28;20190;-81
2023/11/08 00:38:51;;;;;;;0.20;0.20;;;;;;;-144.99;100.00;67352.69;5013762;28;20190;-81
2023/11/08 00:41:16;;;;;;;0.10;0.10;;;;;;;-144.99;100.00;67352.69;5019604;28;20196;-81
2023/11/08 00:43:41;;;;;;;0.50;0.50;;;;;;;-144.99;100.00;67352.69;5021093;28;20276;-81
2023/11/08 00:46:08;;;;;;;0.23;0.20;;;;;;;-144.99;100.00;67352.69;5020923;28;20266;-80
2023/11/08 00:48:34;;;;;;;0.40;0.40;;;;;;;-144.99;100.00;67352.69;5031671;28;20190;-81
2023/11/08 00:51:01;;;;;;;0.30;0.30;;;;;;;-144.99;100.00;67352.69;5007873;28;20741;-81
2023/11/08 00:53:27;;;;;;;0.73;0.43;;;;;;;-144.99;100.00;67352.69;5019442;28;20270;-81
2023/11/08 00:55:52;;;;;;;1.23;0.93;;;;;;;-144.99;100.00;67352.69;5019924;28;20225;-81
2023/11/08 00:58:17;;;;;;;0.47;0.47;;;;;;;-144.99;100.00;67352.69;5019171;28;20323;-81
2023/11/08 01:00:43;;;;;;;1.07;0.70;;;;;;;-144.99;100.00;67352.69;5018574;28;20195;-81
2023/11/08 01:03:08;;;;;;;1.27;1.27;;;;;;;-144.99;100.00;67352.69;5038211;28;20601;-81
2023/11/08 01:05:34;;;;;;;0.43;0.43;;;;;;;-144.99;100.00;67352.69;5066069;22;20225;-86
2023/11/08 01:07:59;;;;;;;0.20;0.20;;;;;;;-144.99;100.00;67352.69;4995229;28;20564;-85
2023/11/08 01:10:26;;;;;;;3.40;0.47;;;;;;;-144.99;100.00;67352.69;4995887;28;20224;-86
2023/11/08 01:12:53;;;;;;;0.07;0.07;;;;;;;-144.99;100.00;67352.69;4995103;28;20189;-86
2023/11/08 01:15:20;;;;;;;0.30;0.30;;;;;;;-144.99;100.00;67352.69;4992899;28;20273;-85
2023/11/08 01:17:46;;;;;;;0.47;0.33;;;;;;;-144.99;100.00;67352.69;4977205;28;20185;-86
2023/11/08 01:20:12;;;;;;;0.93;0.93;;;;;;;-144.99;100.00;67352.69;4975861;28;20537;-86
2023/11/08 01:22:38;;;;;;;1.00;0.37;;;;;;;-144.99;100.00;67352.69;4978090;28;20549;-86
2023/11/08 01:25:04;;;;;;;0.30;0.10;;;;;;;-144.99;100.00;67352.69;4975164;28;20234;-87
2023/11/08 01:27:29;;;;;;;0.50;0.50;;;;;;;-144.99;100.00;67352.69;4977022;28;20737;-85
2023/11/08 01:29:54;;;;;;;0.03;0.03;;;;;;;-144.99;100.00;67352.69;4976777;28;20197;-86
2023/11/08 01:32:20;;;;;;;0.43;0.43;;;;;;;-144.99;100.00;67352.69;4975080;28;20298;-86
2023/11/08 01:34:45;;;;;;;0.40;0.40;;;;;;;-144.99;100.00;67352.69;4961231;28;20177;-85
2023/11/08 01:37:11;;;;;;;0.40;0.40;;;;;;;-144.99;100.00;67352.69;4973175;28;20612;-86
2023/11/08 01:39:36;;;;;;;0.10;0.10;;;;;;;-144.99;100.00;67352.69;4998586;28;20239;-85
2023/11/08 01:42:02;;;;;;;0.30;0.30;;;;;;;-144.99;100.00;67352.69;4975777;28;20181;-86
2023/11/08 01:44:27;;;;;;;5.13;1.00;;;;;;;-144.99;100.00;67352.69;4972308;28;20243;-86
2023/11/08 01:46:54;;;;;;;5.97;1.10;;;;;;;-144.99;100.00;67352.69;4990249;28;20199;-85
2023/11/08 01:49:20;;;;;;;0.73;0.73;;;;;;;-144.99;100.00;67352.69;4991926;28;20198;-87
2023/11/08 01:51:49;;;;;;;4.73;1.23;;;;;;;-144.99;100.00;67352.69;4981459;28;20184;-87
2023/11/08 01:54:19;;;;;;;0.83;0.40;;;;;;;-144.99;100.00;67352.69;4978907;28;20184;-86
2023/11/08 01:56:46;;;;;;;0.87;0.53;;;;;;;-144.99;100.00;67352.69;4982024;28;20204;-86
2023/11/08 01:59:13;;;;;;;4.63;1.03;;;;;;;-144.99;100.00;67352.69;4989317;28;20192;-85
2023/11/08 02:01:40;;;;;;;0.20;0.20;;;;;;;-144.99;100.00;67352.69;4964844;28;20197;-87
2023/11/08 02:04:06;;;;;;;1.03;0.97;;;;;;;-144.99;100.00;67352.69;4965785;28;20269;-83
2023/11/08 02:06:32;;;;;;;0.93;0.93;;;;;;;-144.99;100.00;67352.69;5005763;28;20203;-84
2023/11/08 02:09:00;;;;;;;0.60;0.40;;;;;;;-144.99;100.00;67352.69;4970128;28;20182;-85
2023/11/08 02:11:28;;;;;;;5.53;1.07;;;;;;;-144.99;100.00;67352.69;4977240;28;20269;-85
2023/11/08 02:13:57;;;;;;;0.83;0.80;;;;;;;-144.99;100.00;67352.69;5001501;28;20178;-85
2023/11/08 02:16:22;;;;;;;1.30;0.90;;;;;;;-144.99;100.00;67352.69;5011936;28;20261;-84
2023/11/08 02:18:50;;;;;;;1.70;0.97;;;;;;;-144.99;100.00;67352.69;4987225;28;20206;-86
2023/11/08 02:21:18;;;;;;;0.90;0.90;;;;;;;-144.99;100.00;67352.69;4985761;28;20185;-86
2023/11/08 02:23:46;;;;;;;0.83;0.60;;;;;;;-144.99;100.00;67352.69;4964964;28;20181;-85
2023/11/08 02:26:12;;;;;;;0.57;0.57;;;;;;;-144.99;100.00;67352.69;5015745;28;20222;-86
2023/11/08 02:28:37;;;;;;;2.63;0.87;;;;;;;-144.99;100.00;67352.69;5014507;28;20197;-86
2023/11/08 02:31:02;;;;;;;1.10;0.77;;;;;;;-144.99;100.00;67352.69;4980828;28;20209;-85
2023/11/08 02:33:28;;;;;;;4.17;1.03;;;;;;;-144.99;100.00;67352.69;4981324;28;20267;-86
2023/11/08 02:35:58;;;;;;;1.30;1.10;;;;;;;-144.99;100.00;67352.69;5014491;28;20194;-84
2023/11/08 02:38:27;;;;;;;1.03;1.00;;;;;;;-144.99;100.00;67352.69;4973160;28;20185;-86
2023/11/08 02:40:53;;;;;;;0.53;0.53;;;;;;;-144.99;100.00;67352.69;4980862;28;20273;-86
2023/11/08 02:43:18;;;;;;;0.53;0.53;;;;;;;-144.99;100.00;67352.69;4981940;28;20178;-88
2023/11/08 02:45:44;;;;;;;4.80;0.43;;;;;;;-144.99;100.00;67352.69;4982847;28;20719;-85
2023/11/08 02:48:09;;;;;;;1.23;1.10;;;;;;;-144.99;100.00;67352.69;4977501;28;20204;-86
2023/11/08 02:50:38;;;;;;;1.63;1.53;;;;;;;-144.99;100.00;67352.69;4982252;28;20186;-86
2023/11/08 02:53:03;;;;;;;6.27;1.57;;;;;;;-144.99;100.00;67352.69;4979450;28;20632;-86
2023/11/08 02:55:30;;;;;;;1.23;1.23;;;;;;;-144.99;100.00;67352.69;4985072;28;20206;-87
2023/11/08 02:57:55;;;;;;;6.93;0.83;;;;;;;-144.99;100.00;67352.69;4986787;28;20182;-86
2023/11/08 03:00:21;;;;;;;1.30;1.10;;;;;;;-144.99;100.00;67352.69;4988208;28;20249;-87
2023/11/08 03:02:47;;;;;;;0.93;0.73;;;;;;;-144.99;100.00;67352.69;5021172;28;20191;-86
2023/11/08 03:05:21;;;;;;;0.67;0.63;;;;;;;-144.99;100.00;67352.69;5026668;28;20209;-86
2023/11/08 03:07:47;;;;;;;2.97;1.20;;;;;;;-144.99;100.00;67352.69;4994132;28;20165;-86
2023/11/08 03:10:17;;;;;;;1.97;1.00;;;;;;;-144.99;100.00;67352.69;4994293;28;20177;-86
2023/11/08 03:12:51;;;;;;;2.63;1.40;;;;;;;-144.99;100.00;67352.69;5023890;28;20193;-86
2023/11/08 03:15:17;;;;;;;0.90;0.90;;;;;;;-144.99;100.00;67352.69;5009029;28;20269;-86
2023/11/08 03:17:46;;;;;;;2.87;2.10;;;;;;;-144.99;100.00;67352.69;5004495;28;20181;-86
2023/11/08 03:20:17;;;;;;;7.80;2.03;;;;;;;-144.99;100.00;67352.69;4969589;28;20342;-85
2023/11/08 03:22:43;;;;;;;2.30;1.20;;;;;;;-144.99;100.00;67352.69;4992774;28;20672;-85
2023/11/08 03:25:11;;;;;;;1.60;1.40;;;;;;;-144.99;100.00;67352.69;4972836;28;20181;-84
2023/11/08 03:27:41;;;;;;;2.87;2.47;;;;;;;-144.99;100.00;67352.69;4977376;28;20285;-85
2023/11/08 03:30:10;;;;;;;1.90;1.80;;;;;;;-144.99;100.00;67352.69;4960249;28;20646;-85
2023/11/08 03:32:36;;;;;;;6.63;1.93;;;;;;;-144.99;100.00;67352.69;4958484;28;20224;-85
2023/11/08 03:35:02;;;;;;;2.60;2.40;;;;;;;-144.99;100.00;67352.69;4976594;28;20663;-85
2023/11/08 03:37:27;;;;;;;3.97;2.77;;;;;;;-144.99;100.00;67352.69;4979562;28;20182;-85
2023/11/08 03:39:55;;;;;;;2.03;1.83;;;;;;;-144.99;100.00;67352.69;4971027;28;20191;-85
2023/11/08 03:42:25;;;;;;;1.63;1.53;;;;;;;-144.99;100.00;67352.69;4968313;28;20178;-86
2023/11/08 03:44:51;;;;;;;2.60;2.40;;;;;;;-144.99;100.00;67352.69;4977325;28;20200;-85
2023/11/08 03:47:16;;;;;;;1.20;1.17;;;;;;;-144.99;100.00;67352.69;4967059;28;20202;-86
2023/11/08 03:49:41;;;;;;;1.83;1.73;;;;;;;-144.99;100.00;67352.69;4965210;28;20182;-85
2023/11/08 03:52:07;;;;;;;2.67;2.03;;;;;;;-144.99;100.00;67352.69;4984687;28;20166;-85
2023/11/08 03:54:47;;;;;;;1.53;1.43;;;;;;;-144.99;100.00;67352.69;5109572;27;20569;-81
2023/11/08 03:57:12;;;;;;;5.63;2.37;;;;;;;-144.99;100.00;67352.69;5110400;28;20181;-80
2023/11/08 03:59:37;;;;;;;2.43;2.23;;;;;;;-144.99;100.00;123564.22;5110201;28;20539;-80
2023/11/08 04:02:03;;;;;;;1.90;1.80;;;;;;;-144.99;100.00;67352.69;5105977;28;20234;-82
2023/11/08 04:04:28;;;;;;;1.97;1.87;;;;;;;-144.99;100.00;67352.69;5105228;28;20526;-82
2023/11/08 04:06:53;;;;;;;4.90;2.03;;;;;;;-144.99;100.00;67352.69;5109309;28;20234;-81
2023/11/08 04:09:18;;;;;;;5.40;2.67;;;;;;;-144.99;100.00;67352.69;5109334;28;20181;-81
2023/11/08 04:11:44;;;;;;;1.80;1.70;;;;;;;-144.99;100.00;67352.69;5101690;28;20674;-81
2023/11/08 04:14:09;;;;;;;2.20;2.07;;;;;;;-144.99;100.00;67352.69;5101599;28;20204;-82
2023/11/08 04:16:41;;;;;;;2.80;2.60;;;;;;;-144.99;100.00;67352.69;5101197;28;20185;-82
2023/11/08 04:19:07;;;;;;;7.70;2.40;;;;;;;-144.99;100.00;67352.69;5108554;28;20185;-82
2023/11/08 04:21:33;;;;;;;3.00;2.80;;;;;;;-144.99;100.00;67352.69;5108116;28;20678;-81
2023/11/08 04:23:58;;;;;;;1.80;1.70;;;;;;;-144.99;100.00;67352.69;5110140;28;20276;-80
2023/11/08 04:26:23;;;;;;;1.87;1.77;;;;;;;-144.99;100.00;67352.69;5116555;28;20181;-83
2023/11/08 04:28:48;;;;;;;4.60;3.07;;;;;;;-144.99;100.00;67352.69;5114350;28;20177;-84
2023/11/08 04:31:14;;;;;;;3.13;2.83;;;;;;;-144.99;100.00;67352.69;5104122;28;20180;-83
2023/11/08 04:33:40;;;;;;;3.00;2.80;;;;;;;-144.99;100.00;67352.69;5111818;28;20203;-83
2023/11/08 04:36:08;;;;;;;4.57;3.00;;;;;;;-144.99;100.00;67352.69;5111906;28;20226;-81
2023/11/08 04:38:34;;;;;;;4.77;3.80;;;;;;;-144.99;100.00;67352.69;5110456;28;20663;-84
2023/11/08 04:40:59;;;;;;;7.47;3.60;;;;;;;-144.99;100.00;67352.69;5105474;28;20226;-83
2023/11/08 04:43:25;;;;;;;3.70;3.40;;;;;;;-144.99;100.00;67352.69;5102555;28;20182;-82
2023/11/08 04:45:50;;;;;;;3.23;2.93;;;;;;;-144.99;100.00;67352.69;5110717;28;20705;-82
2023/11/08 04:48:16;;;;;;;5.77;3.30;;;;;;;-144.99;100.00;67352.69;5101726;28;20182;-82
2023/11/08 04:50:41;;;;;;;2.30;2.10;;;;;;;-144.99;100.00;67352.69;5079390;28;20170;-81
2023/11/08 04:53:07;;;;;;;1.80;1.70;;;;;;;-144.99;100.00;67352.69;5087123;28;20198;-82
2023/11/08 04:55:32;;;;;;;4.23;2.23;;;;;;;-144.99;100.00;67352.69;5107432;28;20201;-81
2023/11/08 04:57:58;;;;;;;3.80;3.47;;;;;;;-144.99;100.00;67352.69;5093934;28;20656;-82
2023/11/08 05:00:23;;;;;;;1.90;1.80;;;;;;;-144.99;100.00;67352.69;5108646;28;20181;-82
2023/11/08 05:02:48;;;;;;;4.27;3.93;;;;;;;-144.99;100.00;67352.69;5109961;28;20256;-83
2023/11/08 05:05:15;;;;;;;3.53;3.23;;;;;;;-144.99;100.00;67352.69;5092296;28;20273;-82
2023/11/08 05:07:42;;;;;;;5.80;2.43;;;;;;;-144.99;100.00;67352.69;5095310;28;20561;-83
2023/11/08 05:10:09;;;;;;;1.70;1.60;;;;;;;-144.99;100.00;67352.69;5094457;28;20193;-82
2023/11/08 05:12:35;;;;;;;2.83;2.73;;;;;;;-144.99;100.00;67352.69;5094490;28;20209;-82
2023/11/08 05:15:05;;;;;;;2.93;2.57;;;;;;;-144.99;100.00;67352.69;5107240;28;20186;-80
2023/11/08 05:17:31;;;;;;;3.63;3.40;;;;;;;-144.99;100.00;67352.69;5118556;28;20194;-80
2023/11/08 05:19:57;;;;;;;4.40;4.10;;;;;;;-144.99;100.00;67352.69;5107630;28;20189;-81
2023/11/08 05:22:22;;;;;;;3.67;3.37;;;;;;;-144.99;100.00;67352.69;5096450;28;20188;-83
2023/11/08 05:24:47;;;;;;;3.83;3.40;;;;;;;-144.99;100.00;67352.69;5099836;28;20222;-84
2023/11/08 05:27:13;;;;;;;3.17;2.43;;;;;;;-144.99;100.00;67352.69;5103730;28;20287;-84
2023/11/08 05:29:39;;;;;;;4.40;4.03;;;;;;;-144.99;100.00;67352.69;5100995;28;20182;-83
2023/11/08 05:32:04;;;;;;;5.63;3.13;;;;;;;-144.99;100.00;67352.69;5098175;28;20749;-84
2023/11/08 05:34:30;;;;;;;3.20;2.90;;;;;;;-144.99;100.00;67352.69;5099464;28;20201;-84
2023/11/08 05:36:55;;;;;;;1.40;1.30;;;;;;;-144.99;100.00;67352.69;5097984;28;20185;-83
2023/11/08 05:39:22;;;;;;;3.40;3.20;;;;;;;-144.99;100.00;67352.69;5099216;28;20177;-81
2023/11/08 05:41:53;;;;;;;6.20;3.30;;;;;;;-144.99;100.00;67352.69;5097713;28;20181;-83
2023/11/08 05:44:19;;;;;;;3.00;1.80;;;;;;;-144.99;100.00;67352.69;5096607;28;20197;-82
2023/11/08 05:46:45;;;;;;;5.23;3.20;;;;;;;-144.99;100.00;67352.69;5098080;28;20180;-81
2023/11/08 05:49:11;;;;;;;7.63;2.93;;;;;;;-144.99;100.00;67352.69;5097984;28;20668;-83
2023/11/08 05:51:37;;;;;;;6.77;3.77;;;;;;;-144.99;100.00;67352.69;5089948;28;20251;-84
2023/11/08 05:54:03;;;;;;;2.10;2.00;;;;;;;-144.99;100.00;67352.69;5097698;28;20675;-83
2023/11/08 05:56:29;;;;;;;4.07;2.90;;;;;;;-144.99;100.00;67352.69;5096108;28;20195;-84
2023/11/08 05:58:55;;;;;;;2.43;2.27;;;;;;;-144.99;100.00;67352.69;5098108;28;20233;-84
2023/11/08 06:01:20;;;;;;;2.77;2.57;;;;;;;-144.99;100.00;67352.69;5095929;28;20182;-82
2023/11/08 06:03:46;;;;;;;2.43;2.23;;;;;;;-144.99;100.00;67352.69;5089221;28;20174;-83
2023/11/08 06:06:11;;;;;;;3.27;3.07;;;;;;;-144.99;100.00;67352.69;5097175;28;20177;-83
2023/11/08 06:08:36;;;;;;;4.30;3.20;;;;;;;-144.99;100.00;67352.69;5098266;28;20186;-83
2023/11/08 06:11:04;;;;;;;2.40;2.20;;;;;;;-144.99;100.00;67352.69;5099207;28;20189;-82
2023/11/08 06:13:32;;;;;;;11.90;3.03;;;;;;;-144.99;100.00;67352.69;5099147;28;20292;-82
2023/11/08 06:15:58;;;;;;;1.73;1.63;;;;;;;-144.99;100.00;67352.69;5099716;28;20190;-83
2023/11/08 06:18:26;;;;;;;6.07;3.23;;;;;;;-144.99;100.00;67352.69;5099177;28;20737;-84
2023/11/08 06:20:51;;;;;;;6.60;5.27;;;;;;;-144.99;100.00;67352.69;5098416;28;20189;-84
2023/11/08 06:23:17;;;;;;;4.37;4.07;;;;;;;-144.99;100.00;67352.69;5099167;28;20190;-81
2023/11/08 06:25:43;;;;;;;2.23;1.70;;;;;;;-144.99;100.00;67352.69;5099034;28;20197;-83
2023/11/08 06:28:09;;;;;;;4.27;3.97;;;;;;;-144.99;100.00;67352.69;5099164;28;20185;-82
2023/11/08 06:30:34;;;;;;;6.20;3.77;;;;;;;-144.99;100.00;67352.69;5100358;28;20314;-82
2023/11/08 06:33:01;;;;;;;2.33;2.17;;;;;;;-144.99;100.00;67352.69;5099465;28;20258;-83
2023/11/08 06:35:26;;;;;;;6.20;2.37;;;;;;;-144.99;100.00;67352.69;5092071;28;20205;-82
2023/11/08 06:37:51;;;;;;;6.20;4.80;;;;;;;-144.99;100.00;67352.69;5093787;28;20651;-82
2023/11/08 06:40:17;;;;;;;2.83;2.63;;;;;;;-144.99;100.00;67352.69;5093794;28;20182;-81
2023/11/08 06:42:42;;;;;;;5.27;4.87;;;;;;;-144.99;100.00;67352.69;5093608;28;20209;-82
2023/11/08 06:45:08;;;;;;;1.93;1.83;;;;;;;-144.99;100.00;67352.69;5089092;28;20293;-83
2023/11/08 06:47:33;;;;;;;2.67;2.40;;;;;;;-144.99;100.00;67352.69;5084956;28;20222;-81
2023/11/08 06:49:59;;;;;;;5.60;5.10;;;;;;;-144.99;100.00;67352.69;5092143;28;20213;-82
2023/11/08 06:52:27;;;;;;;3.97;2.43;;;;;;;-144.99;100.00;67352.69;5084853;28;20227;-83
2023/11/08 06:54:52;;;;;;;3.13;2.57;;;;;;;-144.99;100.00;67352.69;5092946;28;20234;-82
2023/11/08 06:57:18;;;;;;;2.43;2.33;;;;;;;-144.99;100.00;67352.69;5094717;28;20652;-82
2023/11/08 06:59:44;;;;;;;3.83;3.30;;;;;;;-144.99;100.00;67352.69;5092293;28;20268;-82
2023/11/08 07:02:09;;;;;;;4.83;4.37;;;;;;;-144.99;100.00;67352.69;5091604;28;20185;-82
2023/11/08 07:04:35;;;;;;;3.30;3.10;;;;;;;-144.99;100.00;67352.69;5092611;28;20201;-82
2023/11/08 07:07:03;;;;;;;4.30;3.30;;;;;;;-144.99;100.00;67352.69;5085678;22;21658;-87
2023/11/08 07:09:29;;;;;;;2.10;1.90;;;;;;;-144.99;100.00;67352.69;5053702;28;20262;-86
2023/11/08 07:11:55;;;;;;;8.37;2.90;;;;;;;-144.99;100.00;67352.69;5053797;28;20206;-85
2023/11/08 07:14:21;;;;;;;1.90;1.80;;;;;;;-144.99;100.00;67352.69;5053424;28;20194;-85
2023/11/08 07:16:46;;;;;;;2.53;2.40;;;;;;;-144.99;100.00;67352.69;5061525;28;20211;-86
2023/11/08 07:19:14;;;;;;;11.00;3.43;;;;;;;-144.99;100.00;67352.69;5072265;28;20265;-85
2023/11/08 07:21:40;;;;;;;3.20;2.43;;;;;;;-144.99;100.00;67352.69;5073371;28;20203;-85
2023/11/08 07:24:08;;;;;;;3.60;3.40;;;;;;;-144.99;100.00;67352.69;5070814;28;20179;-85
2023/11/08 07:26:34;;;;;;;3.73;3.43;;;;;;;-144.99;100.00;67352.69;5073366;28;20225;-86
2023/11/08 07:29:03;;;;;;;3.33;3.03;;;;;;;-144.99;100.00;67352.69;5073576;28;20589;-86
2023/11/08 07:31:30;;;;;;;3.93;3.63;;;;;;;-144.99;100.00;67352.69;5070608;28;20183;-85
2023/11/08 07:33:55;;;;;;;3.60;3.27;;;;;;;-144.99;100.00;67352.69;5067037;28;20222;-84
2023/11/08 07:36:23;;;;;;;3.67;3.37;;;;;;;-144.99;100.00;67352.69;5072774;28;20639;-85
2023/11/08 07:38:48;;;;;;;2.43;2.23;;;;;;;-144.99;100.00;67352.69;5071800;28;20186;-86
2023/11/08 07:41:14;;;;;;;2.60;2.40;;;;;;;-144.99;100.00;67352.69;5072096;28;20253;-86
2023/11/08 07:43:40;;;;;;;2.10;1.63;;;;;;;-144.99;100.00;67352.69;5071671;28;20640;-86
2023/11/08 07:46:05;;;;;;;2.77;2.13;;;;;;;-144.99;100.00;67352.69;5073000;28;20194;-86
2023/11/08 07:48:30;;;;;;;1.73;1.30;;;;;;;-144.99;100.00;67352.69;5073135;28;20267;-85
2023/11/08 07:50:55;;;;;;;3.33;3.03;;;;;;;-144.99;100.00;67352.69;5073877;28;20182;-86
2023/11/08 07:53:21;;;;;;;3.87;3.53;;;;;;;-144.99;100.00;67352.69;5074274;28;20632;-84
2023/11/08 07:55:49;;;;;;;6.47;2.87;;;;;;;-144.99;100.00;67352.69;5072942;28;20247;-85
2023/11/08 07:58:16;;;;;;;2.00;1.90;;;;;;;-144.99;100.00;67352.69;5074730;28;20174;-86
2023/11/08 08:00:45;;;;;;;2.90;2.37;;;;;;;-144.99;100.00;67352.69;5073171;28;20713;-86
2023/11/08 08:03:13;;;;;;;1.83;1.73;;;;;;;-144.99;100.00;67352.69;5072619;28;20205;-86
2023/11/08 08:05:39;;;;;;;3.33;1.50;;;;;;;-144.99;100.00;67352.69;5072561;28;20232;-86
2023/11/08 08:08:05;;;;;;;1.83;1.73;;;;;;;-144.99;100.00;67352.69;5072912;28;20186;-85
2023/11/08 08:10:32;;;;;;;11.83;1.63;;;;;;;-144.99;100.00;67352.69;5073355;28;20218;-85
2023/11/08 08:12:57;;;;;;;2.87;1.40;;;;;;;-144.99;100.00;67352.69;5071053;28;20273;-87
2023/11/08 08:15:24;;;;;;;6.73;1.80;;;;;;;-144.99;100.00;67352.69;5072919;28;20288;-86
2023/11/08 08:17:49;;;;;;;1.53;1.43;;;;;;;-144.99;100.00;67352.69;5072105;28;20247;-85
2023/11/08 08:20:15;;;;;;;1.60;1.37;;;;;;;-144.99;100.00;67352.69;5072284;28;20666;-85
2023/11/08 08:22:40;;;;;;;1.07;1.07;;;;;;;-144.99;100.00;67352.69;5070426;28;20261;-84
2023/11/08 08:25:06;;;;;;;1.73;1.63;;;;;;;-144.99;100.00;67352.69;5073161;28;20181;-86
2023/11/08 08:27:33;;;;;;;3.13;2.13;;;;;;;-144.99;100.00;67352.69;5073785;28;20225;-84
2023/11/08 08:29:58;;;;;;;2.07;1.30;;;;;;;-144.99;100.00;67352.69;5073492;28;20186;-85
2023/11/08 08:32:24;;;;;;;1.87;1.77;;;;;;;-144.99;100.00;67352.69;5072601;28;20264;-85
2023/11/08 08:34:49;;;;;;;7.80;1.77;;;;;;;-144.99;100.00;67352.69;5067315;28;20203;-85
2023/11/08 08:37:15;;;;;;;2.00;1.90;;;;;;;-144.99;100.00;67352.69;5073592;28;20210;-85
2023/11/08 08:39:40;;;;;;;3.90;3.03;;;;;;;-144.99;100.00;67352.69;5072638;28;20269;-86
2023/11/08 08:42:06;;;;;;;1.63;1.50;;;;;;;-144.99;100.00;67352.69;5074952;28;20182;-85
2023/11/08 08:44:35;;;;;;;2.40;1.50;;;;;;;-144.99;100.00;67352.69;5075216;28;20645;-86
2023/11/08 08:47:00;;;;;;;7.93;1.73;;;;;;;-144.99;100.00;67352.69;5073511;28;20217;-85
2023/11/08 08:49:26;;;;;;;1.13;1.13;;;;;;;-144.99;100.00;67352.69;5069350;28;20198;-86
2023/11/08 08:51:51;;;;;;;1.83;1.73;;;;;;;-144.99;100.00;67352.69;5074110;28;20188;-87
2023/11/08 08:54:18;;;;;;;1.67;1.57;;;;;;;-144.99;100.00;67352.69;5074932;28;20580;-86
2023/11/08 08:56:49;;;;;;;5.70;2.33;;;;;;;-144.99;100.00;67352.69;5072055;28;20247;-86
2023/11/08 08:59:15;;;;;;;1.30;1.20;;;;;;;-144.99;100.00;67352.69;5074683;28;20181;-86
2023/11/08 09:01:40;;;;;;;2.47;2.13;;;;;;;-144.99;100.00;67352.69;5075292;28;20174;-86
2023/11/08 09:04:06;;;;;;;2.63;2.43;;;;;;;-144.99;100.00;67352.69;5075437;28;20182;-85
2023/11/08 09:06:31;;;;;;;1.57;1.13;;;;;;;-144.99;100.00;67352.69;5075267;28;20599;-85
2023/11/08 09:08:57;;;;;;;5.43;1.07;;;;;;;-144.99;100.00;67352.69;5076190;28;20197;-86
2023/11/08 09:11:22;;;;;;;2.80;1.60;;;;;;;-144.99;100.00;67352.69;5073679;28;20184;-86
2023/11/08 09:13:48;;;;;;;1.63;1.23;;;;;;;-144.99;100.00;67352.69;5075225;28;20248;-87
2023/11/08 09:16:14;;;;;;;5.57;1.57;;;;;;;-144.99;100.00;67352.69;5073494;28;20214;-86
2023/11/08 09:18:40;;;;;;;6.13;1.80;;;;;;;-144.99;100.00;67352.69;5073520;28;20190;-87
2023/11/08 09:21:06;;;;;;;3.20;1.37;;;;;;;-144.99;100.00;67352.69;5075085;28;20228;-86
2023/11/08 09:23:33;;;;;;;2.00;1.13;;;;;;;-144.99;100.00;67352.69;5073623;28;20178;-86
2023/11/08 09:25:58;;;;;;;1.33;0.73;;;;;;;-144.99;100.00;67352.69;5075389;28;20245;-86
2023/11/08 09:28:25;;;;;;;2.03;1.23;;;;;;;-144.99;100.00;67352.69;5075614;28;20645;-85
2023/11/08 09:30:52;;;;;;;7.60;1.70;;;;;;;-144.99;100.00;67352.69;5074555;28;20179;-86
2023/11/08 09:33:18;;;;;;;1.07;0.97;;;;;;;-144.99;100.00;67352.69;5073775;28;20198;-87
2023/11/08 09:35:43;;;;;;;2.17;0.93;;;;;;;-144.99;100.00;67352.69;5073695;28;20737;-86
2023/11/08 09:38:09;;;;;;;1.83;1.57;;;;;;;-144.99;100.00;67352.69;5073746;28;20186;-86
2023/11/08 09:40:34;;;;;;;2.93;2.60;;;;;;;-144.99;100.00;67352.69;5074570;28;20178;-86
2023/11/08 09:43:00;;;;;;;11.07;1.67;;;;;;;-144.99;100.00;67352.69;5073733;28;20206;-87
2023/11/08 09:45:30;;;;;;;2.63;1.07;;;;;;;-144.99;100.00;67352.69;5073096;28;20190;-85
2023/11/08 09:47:56;;;;;;;0.93;0.70;;;;;;;-144.99;100.00;67352.69;5073142;28;20205;-87
2023/11/08 09:50:22;;;;;;;0.93;0.93;;;;;;;-144.99;100.00;67352.69;5073196;28;20179;-87
2023/11/08 09:52:48;;;;;;;1.43;1.33;;;;;;;-144.99;100.00;67352.69;5072992;28;20182;-86
2023/11/08 09:55:13;;;;;;;5.33;1.23;;;;;;;-144.99;100.00;67352.69;5072967;28;20240;-87
2023/11/08 09:57:41;;;;;;;0.70;0.43;;;;;;;-144.99;100.00;67352.69;5074035;28;20202;-86
2023/11/08 10:00:07;;;;;;;1.17;1.07;;;;;;;-144.99;100.00;67352.69;5076133;28;20210;-86
2023/11/08 10:02:36;;;;;;;2.10;0.67;;;;;;;-144.99;100.00;67352.69;5074447;28;20212;-84
2023/11/08 10:05:04;;;;;;;2.93;1.07;;;;;;;-144.99;100.00;67352.69;5073520;28;20537;-86
2023/11/08 10:07:29;;;;;;;2.10;1.73;;;;;;;-144.99;100.00;67352.69;5074125;28;20218;-87
2023/11/08 10:09:54;;;;;;;1.37;1.27;;;;;;;-144.99;100.00;67352.69;5074346;28;20188;-86
2023/11/08 10:12:20;;;;;;;0.60;0.60;;;;;;;-144.99;100.00;67352.69;5075080;28;20225;-86
2023/11/08 10:14:56;;;;;;;0.40;0.40;;;;;;;-144.99;100.00;67352.69;5075590;28;20688;-86
2023/11/08 10:17:33;;;;;;;19.37;2.30;;;;;;;-144.99;100.00;67352.69;5073833;28;20209;-85
2023/11/08 10:19:59;;;;;;;1.77;0.37;;;;;;;-144.99;100.00;67352.69;5072140;28;20185;-84
2023/11/08 10:22:24;;;;;;;1.10;1.00;;;;;;;-144.99;100.00;67352.69;5073014;28;20175;-85
2023/11/08 10:25:01;;;;;;;0.50;0.50;;;;;;;-144.99;100.00;67352.69;5074054;28;20176;-87
2023/11/08 10:27:28;;;;;;;0.50;0.50;;;;;;;-144.99;100.00;67352.69;5072597;28;20312;-86
2023/11/08 10:30:11;;;;;;;4.70;1.33;;;;;;;-144.99;100.00;67352.69;5073855;28;20265;-87
2023/11/08 10:32:36;;;;;;;0.63;0.63;;;;;;;-144.99;100.00;67352.69;5074474;28;20190;-86
2023/11/08 10:35:21;;;;;;;1.97;1.23;;;;;;;-144.99;100.00;67352.69;5071629;28;20182;-87
2023/11/08 10:37:48;;;;;;;2.03;1.17;;;;;;;-144.99;100.00;67352.69;5064779;28;20202;-87
2023/11/08 10:40:14;;;;;;;1.03;0.60;;;;;;;-144.99;100.00;67352.69;5072001;28;20206;-86
2023/11/08 10:42:48;;;;;;;10.73;1.13;;;;;;;-144.99;100.00;67352.69;5070573;28;20189;-87
2023/11/08 10:45:13;;;;;;;2.70;0.23;;;;;;;-144.99;100.00;67352.69;5071339;28;20170;-87
2023/11/08 10:47:40;;;;;;;0.23;0.23;;;;;;;-144.99;100.00;67352.69;5070866;28;20574;-87
2023/11/08 10:50:07;;;;;;;1.23;1.13;;;;;;;-144.99;100.00;67352.69;5073313;28;20186;-86
2023/11/08 10:52:33;;;;;;;1.03;0.90;;;;;;;-144.99;100.00;67352.69;5073191;28;20373;-86
2023/11/08 10:54:59;;;;;;;4.97;1.53;;;;;;;-144.99;100.00;67352.69;5072082;28;20212;-86
2023/11/08 10:57:28;;;;;;;0.97;0.97;;;;;;;-144.99;100.00;67352.69;5073232;28;20393;-86
2023/11/08 10:59:59;;;;;;;5.30;0.90;;;;;;;-144.99;100.00;67352.69;5073037;28;20183;-86
2023/11/08 11:02:33;;;;;;;3.97;1.30;;;;;;;-144.99;100.00;67352.69;5072279;28;20193;-86
2023/11/08 11:05:03;;;;;;;2.47;1.73;;;;;;;-144.99;100.00;67352.69;5072828;28;20176;-87